createdAt,value
2022-08-09T00:01:52.875Z,5.28
2022-08-09T00:05:03.466Z,5.43
2022-08-09T00:08:32.442Z,6.10
2022-08-09T00:12:03.680Z,5.13
2022-08-09T00:15:00.440Z,4.75
2022-08-09T00:18:11.265Z,5.38
2022-08-09T00:21:15.459Z,5.47
2022-08-09T00:24:19.862Z,5.50
2022-08-09T00:27:22.149Z,5.57
2022-08-09T00:30:26.839Z,5.55
2022-08-09T00:33:32.612Z,5.70
2022-08-09T00:36:52.072Z,6.10
2022-08-09T00:40:13.262Z,5.87
2022-08-09T00:44:09.818Z,5.90
2022-08-09T00:46:56.088Z,5.22
2022-08-09T00:50:01.329Z,5.43
2022-08-09T00:53:08.831Z,6.10
2022-08-09T00:56:14.895Z,6.20
2022-08-09T00:59:20.077Z,5.60
2022-08-09T01:02:33.122Z,5.82
2022-08-09T01:05:54.055Z,5.68
2022-08-09T01:09:11.023Z,5.72
2022-08-09T01:12:19.321Z,5.60
2022-08-09T01:15:26.831Z,6.40
2022-08-09T01:18:31.751Z,5.60
2022-08-09T01:21:53.738Z,5.45
2022-08-09T01:25:05.257Z,5.70
2022-08-09T01:28:10.595Z,6.27
2022-08-09T01:31:23.378Z,5.87
2022-08-09T01:34:44.537Z,5.90
2022-08-09T01:38:08.039Z,6.00
2022-08-09T01:41:53.713Z,6.45
2022-08-09T01:45:01.399Z,6.27
2022-08-09T01:48:06.091Z,6.23
2022-08-09T01:51:10.555Z,7.20
2022-08-09T01:54:15.497Z,6.78
2022-08-09T01:57:28.212Z,7.00
2022-08-09T02:00:35.484Z,6.33
2022-08-09T02:03:40.749Z,6.47
2022-08-09T02:07:03.197Z,6.70
2022-08-09T02:10:13.491Z,6.55
2022-08-09T02:13:19.010Z,6.50
2022-08-09T02:16:33.699Z,5.70
2022-08-09T02:19:49.574Z,6.20
2022-08-09T02:22:56.864Z,6.43
2022-08-09T02:26:02.003Z,6.70
2022-08-09T02:29:14.827Z,7.43
2022-08-09T02:32:20.483Z,6.67
2022-08-09T02:36:03.431Z,6.97
2022-08-09T02:38:52.371Z,7.47
2022-08-09T02:41:59.767Z,7.63
2022-08-09T02:45:13.610Z,7.93
2022-08-09T02:48:30.917Z,7.60
2022-08-09T02:51:40.739Z,8.40
2022-08-09T02:54:54.734Z,8.50
2022-08-09T02:58:35.894Z,8.10
2022-08-09T03:01:29.409Z,7.78
2022-08-09T03:04:50.765Z,7.57
2022-08-09T03:07:55.523Z,8.30
2022-08-09T03:11:00.159Z,8.05
2022-08-09T03:14:04.192Z,8.55
2022-08-09T03:17:08.103Z,9.10
2022-08-09T03:20:20.721Z,9.07
2022-08-09T03:23:26.796Z,9.20
2022-08-09T03:26:32.168Z,8.18
2022-08-09T03:29:57.117Z,7.82
2022-08-09T03:33:01.774Z,8.80
2022-08-09T03:36:16.220Z,8.77
2022-08-09T03:39:19.937Z,8.37
2022-08-09T03:42:28.957Z,9.40
2022-08-09T03:46:04.592Z,8.93
2022-08-09T03:48:57.985Z,8.43
2022-08-09T03:52:03.760Z,8.40
2022-08-09T03:55:09.805Z,9.40
2022-08-09T03:58:16.841Z,9.32
2022-08-09T04:01:24.961Z,8.27
2022-08-09T04:04:36.068Z,8.75
2022-08-09T04:07:52.297Z,8.83
2022-08-09T04:10:56.260Z,9.17
2022-08-09T04:14:53.892Z,8.85
2022-08-09T04:17:26.067Z,9.27
2022-08-09T04:20:32.652Z,9.98
2022-08-09T04:23:35.154Z,9.60
2022-08-09T04:26:38.415Z,9.77
2022-08-09T04:29:40.835Z,9.13
2022-08-09T04:32:54.148Z,9.23
2022-08-09T04:35:56.568Z,9.15
2022-08-09T04:39:02.258Z,9.00
2022-08-09T04:42:04.872Z,8.80
2022-08-09T04:45:12.383Z,9.40
2022-08-09T04:48:15.484Z,8.80
2022-08-09T04:51:17.859Z,7.70
2022-08-09T04:54:22.704Z,8.00
2022-08-09T04:57:26.547Z,7.50
2022-08-09T05:00:48.807Z,6.88
2022-08-09T05:03:56.687Z,6.78
2022-08-09T05:07:01.199Z,6.40
2022-08-09T05:10:04.289Z,6.27
2022-08-09T05:13:06.889Z,6.10
2022-08-09T05:16:14.948Z,6.38
2022-08-09T05:19:24.385Z,5.97
2022-08-09T05:22:36.126Z,5.85
2022-08-09T05:25:51.708Z,5.40
2022-08-09T05:28:54.360Z,5.00
2022-08-09T05:32:02.482Z,4.90
2022-08-09T05:35:05.706Z,5.03
2022-08-09T05:38:08.888Z,4.80
2022-08-09T05:41:12.840Z,4.80
2022-08-09T05:44:16.262Z,4.57
2022-08-09T05:47:27.079Z,4.68
2022-08-09T05:50:44.330Z,4.35
2022-08-09T05:53:57.373Z,4.35
2022-08-09T05:57:00.480Z,4.13
2022-08-09T06:00:05.070Z,4.20
2022-08-09T06:03:19.821Z,4.47
2022-08-09T06:06:24.501Z,3.92
2022-08-09T06:09:55.233Z,4.00
2022-08-09T06:13:03.151Z,4.03
2022-08-09T06:16:14.229Z,4.20
2022-08-09T06:19:19.368Z,3.83
2022-08-09T06:22:28.747Z,3.95
2022-08-09T06:25:32.520Z,4.00
2022-08-09T06:28:37.970Z,4.00
2022-08-09T06:32:17.230Z,3.80
2022-08-09T06:35:06.330Z,4.18
2022-08-09T06:38:09.720Z,4.15
2022-08-09T06:41:19.206Z,3.95
2022-08-09T06:44:22.795Z,3.90
2022-08-09T06:47:30.256Z,3.90
2022-08-09T06:50:43.238Z,3.95
2022-08-09T06:53:45.733Z,3.92
2022-08-09T06:56:52.487Z,4.00
2022-08-09T07:00:52.109Z,4.07
2022-08-09T07:03:18.350Z,3.73
2022-08-09T07:06:21.906Z,3.83
2022-08-09T07:09:56.090Z,4.13
2022-08-09T07:12:57.421Z,4.07
2022-08-09T07:16:41.487Z,4.17
2022-08-09T07:19:24.664Z,3.80
2022-08-09T07:22:42.242Z,3.70
2022-08-09T07:25:52.363Z,4.32
2022-08-09T07:29:12.133Z,4.35
2022-08-09T07:32:15.757Z,4.40
2022-08-09T07:35:19.598Z,4.30
2022-08-09T07:38:23.406Z,4.10
2022-08-09T07:41:26.166Z,4.55
2022-08-09T07:44:33.110Z,4.32
2022-08-09T07:48:01.569Z,4.10
2022-08-09T07:52:02.736Z,4.20
2022-08-09T07:54:32.022Z,4.32
2022-08-09T07:57:36.318Z,4.18
2022-08-09T08:00:56.174Z,3.75
2022-08-09T08:04:03.632Z,4.20
2022-08-09T08:07:15.432Z,4.30
2022-08-09T08:10:34.391Z,4.40
2022-08-09T08:13:45.090Z,4.13
2022-08-09T08:17:08.672Z,4.20
2022-08-09T08:20:13.717Z,4.30
2022-08-09T08:23:19.025Z,4.13
2022-08-09T08:26:26.578Z,4.40
2022-08-09T08:29:39.199Z,4.07
2022-08-09T08:32:52.642Z,4.13
2022-08-09T08:36:00.246Z,4.20
2022-08-09T08:39:08.598Z,4.23
2022-08-09T08:42:14.243Z,4.13
2022-08-09T08:45:37.309Z,3.70
2022-08-09T08:48:51.402Z,4.10
2022-08-09T08:52:01.621Z,3.90
2022-08-09T08:55:08.322Z,4.40
2022-08-09T08:58:12.234Z,4.13
2022-08-09T09:01:20.810Z,4.55
2022-08-09T09:04:41.207Z,4.40
2022-08-09T09:07:50.986Z,4.00
2022-08-09T09:10:54.286Z,4.43
2022-08-09T09:13:59.429Z,3.88
2022-08-09T09:17:03.239Z,4.15
2022-08-09T09:20:10.731Z,4.20
2022-08-09T09:23:18.534Z,4.30
2022-08-09T09:26:26.121Z,3.97
2022-08-09T09:30:10.746Z,3.90
2022-08-09T09:33:16.983Z,4.22
2022-08-09T09:36:21.308Z,3.63
2022-08-09T09:39:54.876Z,4.07
2022-08-09T09:42:57.491Z,3.90
2022-08-09T09:49:50.227Z,3.97
2022-08-09T09:52:53.504Z,4.00
2022-08-09T09:56:05.232Z,4.03
2022-08-09T09:59:09.473Z,3.87
2022-08-09T10:02:12.173Z,4.00
2022-08-09T10:05:14.565Z,3.88
2022-08-09T10:08:27.396Z,3.85
2022-08-09T10:11:53.876Z,3.73
2022-08-09T10:15:17.628Z,3.93
2022-08-09T10:18:29.209Z,3.70
2022-08-09T10:21:37.935Z,3.83
2022-08-09T10:24:44.609Z,3.70
2022-08-09T10:27:57.879Z,4.03
2022-08-09T10:34:33.195Z,3.90
2022-08-09T10:37:39.075Z,3.80
2022-08-09T10:40:50.191Z,4.15
2022-08-09T10:44:01.094Z,3.53
2022-08-09T10:48:12.568Z,3.80
2022-08-09T10:51:12.921Z,4.15
2022-08-09T10:54:23.758Z,4.00
2022-08-09T10:57:36.247Z,4.00
2022-08-09T11:01:35.853Z,3.60
2022-08-09T11:04:19.821Z,3.60
2022-08-09T11:07:57.989Z,3.70
2022-08-09T11:11:00.919Z,4.00
2022-08-09T11:14:37.902Z,3.50
2022-08-09T11:17:45.706Z,3.97
2022-08-09T11:20:49.730Z,3.70
2022-08-09T11:24:04.092Z,3.75
2022-08-09T11:28:09.205Z,3.90
2022-08-09T11:30:52.561Z,3.67
2022-08-09T11:33:58.935Z,4.03
2022-08-09T11:37:07.610Z,3.50
2022-08-09T11:40:14.321Z,3.97
2022-08-09T11:43:32.056Z,3.80
2022-08-09T11:46:58.107Z,3.80
2022-08-09T11:50:53.341Z,3.23
2022-08-09T11:53:59.695Z,3.70
2022-08-09T11:57:47.933Z,3.60
2022-08-09T12:01:37.328Z,3.88
2022-08-09T12:04:37.293Z,3.70
2022-08-09T12:07:42.529Z,3.90
2022-08-09T12:10:54.409Z,3.40
2022-08-09T12:14:10.366Z,3.72
2022-08-09T12:17:34.440Z,3.45
2022-08-09T12:20:47.807Z,3.80
2022-08-09T12:24:06.426Z,3.73
2022-08-09T12:29:09.666Z,3.80
2022-08-09T12:30:44.497Z,3.80
2022-08-09T12:33:58.754Z,3.53
2022-08-09T12:37:09.723Z,3.83
2022-08-09T12:40:29.307Z,3.70
2022-08-09T12:44:04.937Z,3.53
2022-08-09T12:46:58.237Z,3.58
2022-08-09T12:50:28.645Z,4.15
2022-08-09T12:53:41.180Z,3.72
2022-08-09T12:56:54.073Z,3.80
2022-08-09T13:00:12.665Z,4.07
2022-08-09T13:03:52.599Z,3.55
2022-08-09T13:06:51.410Z,3.67
2022-08-09T13:10:04.950Z,3.88
2022-08-09T13:13:11.387Z,3.87
2022-08-09T13:16:17.558Z,4.07
2022-08-09T13:20:07.135Z,3.80
2022-08-09T13:23:05.148Z,3.70
2022-08-09T13:26:36.763Z,4.20
2022-08-09T13:30:04.013Z,3.57
2022-08-09T13:33:24.693Z,3.63
2022-08-09T13:36:47.680Z,3.78
2022-08-09T13:41:51.902Z,3.70
2022-08-09T13:43:16.054Z,3.78
2022-08-09T13:47:16.477Z,3.67
2022-08-09T13:49:58.109Z,4.00
2022-08-09T13:53:03.617Z,3.95
2022-08-09T13:56:06.018Z,3.90
2022-08-09T13:59:14.089Z,4.15
2022-08-09T14:02:25.780Z,3.77
2022-08-09T14:06:01.247Z,3.63
2022-08-09T14:08:51.970Z,3.80
2022-08-09T14:11:56.923Z,3.80
2022-08-09T14:14:59.867Z,3.63
2022-08-09T14:18:16.475Z,4.00
2022-08-09T14:21:24.176Z,3.83
2022-08-09T14:24:32.138Z,3.60
2022-08-09T14:27:58.211Z,3.78
2022-08-09T14:31:01.340Z,3.40
2022-08-09T14:34:08.220Z,3.67
2022-08-09T14:37:10.599Z,3.57
2022-08-09T14:40:13.097Z,3.53
2022-08-09T14:43:15.952Z,3.40
2022-08-09T14:46:54.011Z,3.20
2022-08-09T14:50:01.496Z,3.27
2022-08-09T14:53:11.434Z,3.20
2022-08-09T14:56:15.619Z,3.40
2022-08-09T14:59:18.026Z,3.30
2022-08-09T15:02:23.544Z,3.25
2022-08-09T15:05:26.262Z,3.40
2022-08-09T15:08:30.299Z,3.37
2022-08-09T15:11:33.381Z,3.70
2022-08-09T15:14:38.834Z,3.28
2022-08-09T15:17:44.443Z,3.40
2022-08-09T15:21:58.696Z,3.50
2022-08-09T15:24:17.522Z,3.20
2022-08-09T15:27:27.448Z,3.47
2022-08-09T15:30:56.076Z,2.97
2022-08-09T15:34:18.415Z,3.40
2022-08-09T15:37:38.130Z,3.10
2022-08-09T15:40:56.532Z,3.00
2022-08-09T15:44:02.098Z,3.00
2022-08-09T16:02:08.864Z,3.63
2022-08-09T16:05:16.615Z,3.40
2022-08-09T16:08:31.311Z,3.53
2022-08-09T16:11:34.050Z,3.60
2022-08-09T16:14:37.126Z,3.00
2022-08-09T16:17:44.356Z,3.40
2022-08-09T16:20:52.688Z,3.90
2022-08-09T16:23:58.331Z,3.90
2022-08-09T16:27:02.446Z,3.20
2022-08-09T16:30:15.258Z,3.30
2022-08-09T16:33:31.029Z,3.17
2022-08-09T16:36:37.332Z,2.97
2022-08-09T16:39:54.538Z,2.80
2022-08-09T16:43:02.499Z,3.60
2022-08-09T16:46:04.963Z,3.20
2022-08-09T16:49:12.406Z,3.30
2022-08-09T16:52:19.872Z,3.30
2022-08-09T16:55:22.280Z,3.10
2022-08-09T16:58:26.001Z,3.05
2022-08-09T17:01:29.008Z,3.33
2022-08-09T17:04:36.323Z,3.50
2022-08-09T17:08:43.598Z,3.10
2022-08-09T17:11:01.155Z,3.07
2022-08-09T17:14:03.756Z,3.42
2022-08-09T17:17:23.332Z,3.10
2022-08-09T17:20:36.278Z,3.42
2022-08-09T17:24:27.606Z,3.00
2022-08-09T17:27:06.708Z,3.00
2022-08-09T17:30:19.826Z,3.08
2022-08-09T17:33:23.228Z,3.22
2022-08-09T17:36:26.020Z,4.10
2022-08-09T17:39:48.288Z,3.50
2022-08-09T17:42:55.728Z,3.30
2022-08-09T17:46:07.625Z,3.08
2022-08-09T17:49:11.581Z,3.22
2022-08-09T17:52:22.383Z,3.40
2022-08-09T17:55:24.901Z,3.20
2022-08-09T17:58:47.653Z,3.30
2022-08-09T18:02:06.680Z,3.42
2022-08-09T18:05:13.336Z,3.15
2022-08-09T18:08:16.176Z,2.97
2022-08-09T18:11:23.725Z,2.60
2022-08-09T18:14:26.863Z,2.40
2022-08-09T18:18:02.164Z,3.15
2022-08-09T18:20:58.071Z,2.50
2022-08-09T18:24:10.847Z,2.58
2022-08-09T18:27:49.202Z,2.27
2022-08-09T18:30:49.057Z,2.40
2022-08-09T18:33:53.414Z,2.28
2022-08-09T18:36:56.097Z,2.20
2022-08-09T18:39:59.199Z,2.20
2022-08-09T18:43:02.297Z,1.90
2022-08-09T18:46:50.003Z,2.37
2022-08-09T18:49:32.237Z,2.28
2022-08-09T18:52:50.863Z,2.20
2022-08-09T18:55:56.984Z,2.00
2022-08-09T18:59:08.030Z,1.90
2022-08-09T19:02:11.489Z,2.10
2022-08-09T19:05:28.323Z,1.83
2022-08-09T19:08:39.389Z,2.03
2022-08-09T19:11:41.765Z,1.80
2022-08-09T19:14:44.026Z,1.80
2022-08-09T19:17:54.463Z,1.60
2022-08-09T19:20:58.698Z,1.50
2022-08-09T19:24:32.425Z,1.48
2022-08-09T19:27:28.737Z,1.77
2022-08-09T19:30:34.801Z,1.70
2022-08-09T19:33:38.107Z,1.50
2022-08-09T19:36:40.380Z,1.30
2022-08-09T19:40:03.780Z,1.60
2022-08-09T19:43:16.360Z,1.33
2022-08-09T19:46:35.860Z,1.33
2022-08-09T19:50:07.317Z,1.40
2022-08-09T19:53:16.275Z,1.30
2022-08-09T19:56:29.314Z,1.38
2022-08-09T19:59:57.246Z,1.40
2022-08-09T20:04:13.909Z,1.33
2022-08-09T20:06:23.028Z,1.30
2022-08-09T20:09:45.224Z,1.50
2022-08-09T20:12:49.572Z,1.33
2022-08-09T20:16:38.935Z,1.42
2022-08-09T20:19:48.352Z,1.40
2022-08-09T20:22:42.908Z,1.50
2022-08-09T20:25:51.696Z,1.40
2022-08-09T20:28:54.959Z,1.30
2022-08-09T20:32:29.689Z,1.45
2022-08-09T20:35:20.761Z,1.33
2022-08-09T20:38:37.623Z,1.60
2022-08-09T20:41:49.251Z,1.50
2022-08-09T20:45:04.556Z,1.55
2022-08-09T20:48:13.866Z,1.15
2022-08-09T20:51:24.824Z,1.40
2022-08-09T20:54:27.042Z,1.30
2022-08-09T20:57:32.225Z,1.20
2022-08-09T21:00:35.435Z,1.50
2022-08-09T21:04:08.197Z,1.20
2022-08-09T21:07:12.839Z,1.30
2022-08-09T21:10:16.199Z,1.30
2022-08-09T21:13:18.544Z,1.40
2022-08-09T21:16:21.215Z,1.40
2022-08-09T21:20:17.286Z,1.20
2022-08-09T21:22:54.490Z,1.20
2022-08-09T21:26:00.080Z,1.30
2022-08-09T21:29:02.497Z,1.50
2022-08-09T21:32:18.651Z,1.45
2022-08-09T21:35:21.937Z,1.30
2022-08-09T21:38:31.215Z,1.37
2022-08-09T21:42:04.435Z,1.23
2022-08-09T21:44:56.780Z,1.20
2022-08-09T21:47:59.826Z,1.23
2022-08-09T21:51:02.031Z,1.40
2022-08-09T21:54:04.944Z,1.40
2022-08-09T21:57:07.124Z,1.60
2022-08-09T22:00:38.521Z,1.48
2022-08-09T22:03:48.391Z,1.63
2022-08-09T22:07:01.812Z,1.58
2022-08-09T22:10:07.073Z,1.40
2022-08-09T22:13:11.391Z,1.50
2022-08-09T22:16:13.812Z,1.30
2022-08-09T22:19:57.676Z,1.35
2022-08-09T22:22:42.750Z,1.30
2022-08-09T22:26:08.310Z,1.53
2022-08-09T22:29:10.104Z,1.43
2022-08-09T22:32:29.667Z,1.30
2022-08-09T22:36:00.877Z,1.30
2022-08-09T22:38:57.510Z,1.60
2022-08-09T22:42:16.107Z,1.40
2022-08-09T22:48:16.601Z,1.23
2022-08-09T22:48:50.698Z,1.35
2022-08-09T22:51:57.135Z,1.50
2022-08-09T22:55:00.385Z,1.42
2022-08-09T22:58:04.952Z,1.63
2022-08-09T23:01:08.136Z,1.53
2022-08-09T23:04:11.407Z,1.63
2022-08-09T23:08:22.460Z,1.65
2022-08-09T23:10:55.795Z,1.50
2022-08-09T23:14:00.020Z,1.70
2022-08-09T23:17:03.103Z,2.00
2022-08-09T23:20:08.331Z,1.85
2022-08-09T23:23:11.856Z,1.55
2022-08-09T23:26:14.953Z,1.95
2022-08-09T23:29:18.037Z,1.70
2022-08-09T23:32:21.146Z,1.80
2022-08-09T23:35:24.233Z,1.60
2022-08-09T23:38:27.437Z,1.75
2022-08-09T23:41:30.032Z,1.63
2022-08-09T23:44:32.450Z,1.70
2022-08-09T23:47:34.625Z,1.77
2022-08-09T23:50:37.016Z,1.77
2022-08-09T23:53:39.192Z,1.65
2022-08-09T23:56:54.932Z,1.65
